ADDS METAR Data INFO
IDs: Format: Raw Decoded Include TAF

Data at: 2253 UTC 22 Jun 2018

K4I3 222235Z AUTO 08009KT 10SM BKN008 BKN014 22/22 A2975 RMK AO2 LTG DSNT NE S AND W
K4I3 222215Z AUTO 09010KT 10SM BKN010 BKN014 BKN050 23/22 A2974 RMK AO2 LTG DSNT NE AND E
K4I3 222155Z AUTO 09007KT 10SM SCT008 SCT012 BKN050 23/22 A2973 RMK AO2 LTG DSNT NE
K4I3 222135Z AUTO 09006KT 10SM SCT006 22/22 A2973 RMK AO2 LTG DSNT NE THRU S
K4I3 222115Z AUTO 08006KT 10SM SCT006 SCT110 22/22 A2973 RMK AO2 LTG DSNT ALQS
K4I3 222055Z AUTO 14006KT 10SM VCTS CLR 23/22 A2974 RMK AO2 LTG DSNT NE THRU S P0001
K4I3 222035Z AUTO 12004KT 10SM SCT006 23/22 A2974 RMK AO2 LTG DSNT N THRU SE P0001
K4I3 222015Z AUTO 05003KT 10SM -RA SCT008 SCT013 23/23 A2974 RMK AO2 LTG DSNT ALQS P0001
K4I3 221955Z AUTO 06005KT 10SM VCTSRA SCT008 SCT013 SCT120 21/21 A2975 RMK AO2 LTG DSNT NE THRU S
K4I3 221935Z AUTO 00000KT 10SM -VCTSRA CLR 21/21 A2975 RMK AO2 LTG DSNT NE THRU S
K4I3 221915Z AUTO 07006KT 10SM VCTS SCT070 SCT090 21/21 A2977 RMK AO2 LTG DSNT N THRU S
K4I3 221855Z AUTO 05005KT 10SM VCTS SCT030 SCT050 SCT070 20/20 A2977 RMK AO2 LTG DSNT ALQS P0037
K4I3 221835Z AUTO 00000KT 10SM -TSRA SCT005 SCT013 BKN028 20/20 A2977 RMK AO2 LTG DSNT ALQS P0037
K4I3 221815Z AUTO 00000KT 3/4SM +TSRA BKN005 BKN010 OVC015 20/20 A2976 RMK AO2 LTG DSNT ALQS P0035
K4I3 221755Z AUTO 17005KT 10SM TS BKN018 BKN025 BKN037 25/23 A2974 RMK AO2 LTG DSNT ALQS
K4I3 221735Z AUTO 15006KT 10SM VCTS SCT018 BKN022 BKN027 25/23 A2975 RMK AO2 LTG DSNT S THRU NW
K4I3 221715Z AUTO 12007KT 10SM VCTS BKN014 BKN019 BKN027 25/23 A2976 RMK AO2 LTG DSNT W
K4I3 221655Z AUTO 13006KT 10SM SCT008 BKN014 OVC022 24/23 A2977 RMK AO2 LTG DSNT SW AND W
K4I3 221635Z AUTO 13007KT 10SM VCTS BKN008 OVC015 23/22 A2977 RMK AO2 LTG DSNT W
K4I3 221615Z AUTO 13005KT 10SM BKN008 BKN013 23/22 A2977 RMK AO2
K4I3 221555Z AUTO 12005KT 10SM BKN008 OVC013 23/22 A2977 RMK AO2
K4I3 221535Z AUTO 13007KT 10SM OVC008 22/22 A2978 RMK AO2
K4I3 221515Z AUTO 14006KT 10SM OVC006 22/22 A2978 RMK AO2 LTG DSNT SE
K4I3 221455Z AUTO 12006KT 10SM BKN008 OVC015 21/21 A2979 RMK AO2
K4I3 221435Z AUTO 13007KT 10SM OVC006 22/22 A2979 RMK AO2
K4I3 221415Z AUTO 11007KT 10SM OVC006 21/21 A2979 RMK AO2
K4I3 221355Z AUTO 10005KT 10SM OVC006 20/20 A2980 RMK AO2
K4I3 221335Z AUTO 10007KT 10SM OVC006 20/20 A2980 RMK AO2
K4I3 221315Z AUTO 08007KT 10SM OVC006 20/20 A2979 RMK AO2
K4I3 221255Z AUTO 10008KT 10SM -DZ OVC006 20/20 A2980 RMK AO2 P0003
K4I3 221235Z AUTO 10005KT 5SM DZ BKN006 OVC011 20/20 A2979 RMK AO2 P0003
K4I3 221215Z AUTO 11003KT 4SM +RA BKN006 OVC011 20/20 A2979 RMK AO2 P0002
K4I3 221155Z AUTO 10005KT 5SM RA BKN006 OVC011 20/20 A2978 RMK AO2 P0009
K4I3 221135Z AUTO 10006KT 7SM RA BKN006 OVC009 20/20 A2978 RMK AO2 P0007
K4I3 221115Z AUTO 09007KT 4SM -RA OVC004 20/20 A2978 RMK AO2 P0007
K4I3 221055Z AUTO 10006KT 4SM RA OVC004 20/20 A2979 RMK AO2
K4I3 221035Z AUTO 08005KT 5SM BR OVC004 20/20 A2978 RMK AO2
K4I3 221015Z AUTO 08007KT 5SM BR OVC002 20/20 A2978 RMK AO2
K4I3 220955Z AUTO 08007KT 4SM -DZ OVC004 20/20 A2977 RMK AO2 P0001
K4I3 220935Z AUTO 09007KT 3SM RA OVC004 20/20 A2977 RMK AO2
K4I3 220915Z AUTO 07008KT 2 1/2SM -DZ OVC004 19/19 A2976 RMK AO2
K4I3 220855Z AUTO 06006KT 3SM -DZ OVC004 19/19 A2977 RMK AO2
K4I3 220835Z AUTO 05007KT 3SM -DZ OVC006 19/19 A2977 RMK AO2
K4I3 220815Z AUTO 06006KT 4SM RA OVC006 20/20 A2977 RMK AO2
K4I3 220755Z AUTO 04006KT 5SM BR OVC006 20/20 A2976 RMK AO2
K4I3 220735Z AUTO 05005KT 5SM BR OVC006 20/20 A2977 RMK AO2
K4I3 220715Z AUTO 04006KT 5SM BR OVC008 20/20 A2977 RMK AO2
K4I3 220655Z AUTO 06005KT 5SM BR OVC008 20/20 A2978 RMK AO2
K4I3 220635Z AUTO 04005KT 7SM OVC008 20/20 A2979 RMK AO2
K4I3 220615Z AUTO 04004KT 5SM BR OVC010 20/20 A2979 RMK AO2
K4I3 220555Z AUTO 04005KT 7SM BKN010 OVC022 20/20 A2980 RMK AO2 P0001
K4I3 220535Z AUTO 07004KT 7SM BKN010 BKN022 OVC033 20/20 A2980 RMK AO2 P0001
K4I3 220515Z AUTO 08004KT 7SM -RA BKN010 BKN014 BKN024 20/20 A2980 RMK AO2 P0001
K4I3 220455Z AUTO 07004KT 7SM SCT012 BKN024 20/20 A2981 RMK AO2
K4I3 220435Z AUTO 07005KT 10SM SCT012 BKN024 20/20 A2982 RMK AO2
K4I3 220415Z AUTO 08006KT 10SM SCT013 SCT017 BKN026 20/20 A2982 RMK AO2
K4I3 220355Z AUTO 08004KT 10SM -DZ BKN011 BKN017 BKN024 20/20 A2983 RMK AO2
K4I3 220335Z AUTO 12004KT 10SM -RA BKN013 OVC021 20/20 A2982 RMK AO2
K4I3 220315Z AUTO 06004KT 10SM -RA OVC009 20/20 A2982 RMK AO2
K4I3 220255Z AUTO 01003KT 10SM DZ BKN009 OVC021 20/20 A2981 RMK AO2 P0001
K4I3 220235Z AUTO 01004KT 10SM DZ BKN007 BKN019 OVC025 20/20 A2981 RMK AO2 P0001
K4I3 220215Z AUTO 00000KT 10SM RA SCT007 SCT010 BKN025 20/20 A2982 RMK AO2
K4I3 220155Z AUTO 08010KT 7SM -RA BKN010 BKN030 BKN039 20/20 A2980 RMK AO2 P0007
K4I3 220135Z AUTO 08007KT 7SM -RA BKN011 BKN031 OVC039 20/20 A2981 RMK AO2 P0005
K4I3 220115Z AUTO 09004KT 7SM RA SCT009 BKN041 OVC047 20/20 A2982 RMK AO2 P0002
K4I3 220055Z AUTO 11003KT 7SM -RA SCT009 BKN046 OVC055 20/20 A2982 RMK AO2 P0003
K4I3 220035Z AUTO 11004KT 10SM DZ SCT007 BKN060 20/20 A2982 RMK AO2 P0001
K4I3 220015Z AUTO 10005KT 10SM -RA BKN009 BKN050 20/20 A2982 RMK AO2 P0001
K4I3 212355Z AUTO 10005KT 10SM RA SCT007 SCT050 SCT070 21/20 A2982 RMK AO2 P0003
K4I3 212335Z AUTO 11004KT 10SM RA SCT007 SCT050 21/20 A2982 RMK AO2 P0002
K4I3 212315Z AUTO 11007KT 10SM RA SCT007 SCT013 21/21 A2981 RMK AO2 P0001
K4I3 212255Z AUTO 10005KT 10SM -RA BKN007 BKN013 21/21 A2981 RMK AO2 P0001
K4I3 212235Z AUTO 11004KT 10SM -RA SCT007 22/21 A2981 RMK AO2
K4I3 212215Z AUTO 12005KT 10SM RA CLR 22/21 A2981 RMK AO2
K4I3 212155Z AUTO 13006KT 10SM -DZ SCT022 SCT026 SCT060 22/21 A2981 RMK AO2
K4I3 212135Z AUTO 14007KT 10SM -RA SCT020 SCT026 SCT032 23/21 A2981 RMK AO2
K4I3 212115Z AUTO 11007KT 10SM SCT032 BKN060 23/20 A2981 RMK AO2
K4I3 212055Z AUTO 10006KT 10SM -DZ SCT030 23/20 A2981 RMK AO2
K4I3 212035Z AUTO 08007KT 10SM SCT030 23/20 A2981 RMK AO2
K4I3 212015Z AUTO 08007KT 10SM -RA SCT009 BKN028 23/20 A2982 RMK AO2
K4I3 211955Z AUTO 08007KT 10SM OVC030 23/20 A2982 RMK AO2
K4I3 211935Z AUTO 09010KT 10SM BKN030 24/19 A2983 RMK AO2
K4I3 211915Z AUTO 08008KT 10SM OVC030 24/19 A2983 RMK AO2
K4I3 211855Z AUTO 07008KT 10SM OVC028 24/19 A2983 RMK AO2
K4I3 211836Z AUTO 07010KT 10SM OVC028 24/19 A2983 RMK AO2
K4I3 211815Z AUTO 08008KT 060V120 10SM BKN026 BKN060 25/19 A2984 RMK AO2
K4I3 211755Z AUTO 08007KT 10SM SCT026 SCT060 25/19 A2984 RMK AO2
K4I3 211735Z AUTO 07007KT 10SM SCT026 25/19 A2985 RMK AO2
K4I3 211715Z AUTO 09008KT 10SM SCT026 26/19 A2985 RMK AO2
K4I3 211655Z AUTO 07006KT 10SM SCT024 25/19 A2985 RMK AO2
K4I3 211635Z AUTO 11005KT 10SM SCT024 24/19 A2986 RMK AO2
K4I3 211615Z AUTO 10005KT 10SM SCT024 24/18 A2987 RMK AO2
K4I3 211555Z AUTO 06007KT 10SM CLR 24/19 A2987 RMK AO2
K4I3 211535Z AUTO 08008KT 10SM CLR 24/18 A2988 RMK AO2
K4I3 211515Z AUTO 08008KT 10SM CLR 23/18 A2988 RMK AO2
K4I3 211455Z AUTO 05008KT 10SM CLR 23/18 A2987 RMK AO2
K4I3 211435Z AUTO 08008KT 10SM CLR 22/18 A2988 RMK AO2
K4I3 211415Z AUTO 09008KT 10SM SCT016 22/18 A2988 RMK AO2
K4I3 211355Z AUTO 07009KT 10SM SCT016 21/18 A2989 RMK AO2
K4I3 211335Z AUTO 08006KT 10SM CLR 21/18 A2989 RMK AO2
K4I3 211315Z AUTO 10007KT 10SM CLR 20/17 A2989 RMK AO2
K4I3 211255Z AUTO 08008KT 10SM CLR 20/17 A2988 RMK AO2
K4I3 211235Z AUTO 08007KT 10SM CLR 19/17 A2989 RMK AO2
K4I3 211215Z AUTO 06006KT 10SM CLR 19/17 A2989 RMK AO2
K4I3 211155Z AUTO 04008KT 10SM CLR 18/16 A2988 RMK AO2
K4I3 211135Z AUTO 05007KT 10SM CLR 18/16 A2988 RMK AO2
K4I3 211115Z AUTO 04006KT 10SM CLR 17/16 A2988 RMK AO2
K4I3 211055Z AUTO 03006KT 10SM BKN047 17/16 A2988 RMK AO2